Time;durP1;ratioP1;P1;durP2;ratioP2;P2;SDS_P1;SDS_P2;PMS_P1;PMS_P2;Temp;Humidity;BMP_temperature;BMP_pressure;BME280_temperature;BME280_humidity;BME280_pressure;Samples;Min_cycle;Max_cycle;Signal;HPM_P1;HPM_P2
2022/05/08 00:01:35;;;;;;;33.38;25.20;;;;;;;11.67;100.00;101448.72;5044678;28;20037;-62
2022/05/08 00:04:02;;;;;;;35.55;25.40;;;;;;;11.55;100.00;101433.41;5029590;28;20152;-62
2022/05/08 00:06:28;;;;;;;35.50;24.92;;;;;;;11.37;100.00;101412.16;5073598;28;20024;-62
2022/05/08 00:08:53;;;;;;;27.15;24.25;;;;;;;11.55;100.00;101448.34;5073564;28;20047;-62
2022/05/08 00:11:18;;;;;;;31.50;25.02;;;;;;;11.55;100.00;101453.59;5073610;28;20115;-62
2022/05/08 00:13:44;;;;;;;27.65;24.65;;;;;;;11.47;100.00;101445.13;5073105;28;20069;-62
2022/05/08 00:16:09;;;;;;;29.65;26.52;;;;;;;11.42;100.00;101441.81;5074065;28;20260;-62
2022/05/08 00:18:35;;;;;;;30.83;25.25;;;;;;;11.41;100.00;101445.34;5073909;28;20057;-62
2022/05/08 00:21:00;;;;;;;27.50;24.73;;;;;;;11.26;100.00;101420.44;5049972;28;20028;-62
2022/05/08 00:23:25;;;;;;;36.20;24.58;;;;;;;11.40;100.00;101441.84;5037222;28;20468;-62
2022/05/08 00:25:51;;;;;;;26.05;22.88;;;;;;;11.33;100.00;101442.13;5074147;28;20398;-62
2022/05/08 00:28:16;;;;;;;30.75;22.38;;;;;;;11.34;100.00;101449.13;5063892;28;20067;-62
2022/05/08 00:30:42;;;;;;;27.83;21.67;;;;;;;11.28;100.00;101443.19;5029155;28;20025;-62
2022/05/08 00:33:07;;;;;;;24.17;21.60;;;;;;;11.16;100.00;101430.44;5043069;28;20056;-63
2022/05/08 00:35:33;;;;;;;26.13;21.10;;;;;;;11.29;100.00;101454.53;5027912;28;20131;-62
2022/05/08 00:37:58;;;;;;;26.60;20.65;;;;;;;11.23;100.00;101447.75;5029122;28;20388;-62
2022/05/08 00:40:23;;;;;;;21.98;19.67;;;;;;;11.12;100.00;101428.84;5027767;28;20101;-62
2022/05/08 00:42:49;;;;;;;23.02;20.02;;;;;;;11.19;100.00;101435.59;5028850;28;20035;-62
2022/05/08 00:45:14;;;;;;;22.38;19.88;;;;;;;10.87;100.00;101390.34;5027484;28;20150;-62
2022/05/08 00:47:40;;;;;;;20.13;17.95;;;;;;;11.18;100.00;101454.09;5029149;28;20035;-62
2022/05/08 00:50:06;;;;;;;21.92;16.55;;;;;;;10.88;100.00;101408.69;5027565;28;20025;-62
2022/05/08 00:52:34;;;;;;;25.92;16.33;;;;;;;11.15;100.00;101460.28;5029410;28;20849;-62
2022/05/08 00:55:00;;;;;;;16.52;14.52;;;;;;;11.05;100.00;101453.63;5037516;28;20040;-62
2022/05/08 00:57:26;;;;;;;16.50;14.40;;;;;;;11.01;100.00;101441.53;5032499;28;20028;-62
2022/05/08 00:59:52;;;;;;;19.77;14.02;;;;;;;11.00;100.00;101450.34;5028519;28;20025;-62
2022/05/08 01:02:17;;;;;;;15.20;13.50;;;;;;;10.89;100.00;101434.06;5033987;28;20471;-63
2022/05/08 01:04:42;;;;;;;16.33;13.38;;;;;;;10.88;100.00;101439.38;5073263;28;20690;-62
2022/05/08 01:07:08;;;;;;;15.27;12.65;;;;;;;10.88;100.00;101442.88;5044560;28;20895;-62
2022/05/08 01:09:33;;;;;;;14.15;12.00;;;;;;;10.91;100.00;101452.44;5027334;28;20144;-63
2022/05/08 01:11:58;;;;;;;12.20;9.98;;;;;;;10.88;100.00;101448.13;5027645;28;20032;-62
2022/05/08 01:14:25;;;;;;;13.40;11.20;;;;;;;10.85;100.00;101456.09;5047887;28;20029;-62
2022/05/08 01:16:50;;;;;;;10.25;9.23;;;;;;;10.79;100.00;101451.06;5028119;28;20205;-62
2022/05/08 01:19:16;;;;;;;14.40;9.30;;;;;;;10.87;100.00;101454.31;5040196;28;20033;-62
2022/05/08 01:21:42;;;;;;;12.15;9.10;;;;;;;10.93;100.00;101454.09;5072370;28;20040;-62
2022/05/08 01:24:15;;;;;;;10.70;8.98;;;;;;;10.99;100.00;101453.88;5072136;28;20097;-61
2022/05/08 01:26:41;;;;;;;9.52;8.52;;;;;;;11.03;100.00;101451.97;5071818;28;20067;-62
2022/05/08 01:29:06;;;;;;;12.13;8.07;;;;;;;10.98;100.00;101446.03;5054654;28;20055;-62
2022/05/08 01:31:31;;;;;;;10.43;8.30;;;;;;;10.96;100.00;101438.19;5061989;28;20028;-61
2022/05/08 01:33:57;;;;;;;10.73;8.57;;;;;;;10.57;100.00;101376.50;5028115;28;20033;-63
2022/05/08 01:36:23;;;;;;;11.90;8.52;;;;;;;10.90;100.00;101421.78;5035432;28;20068;-63
2022/05/08 01:38:48;;;;;;;9.25;7.57;;;;;;;10.86;100.00;101423.66;5026011;28;20075;-62
2022/05/08 01:41:14;;;;;;;11.98;6.75;;;;;;;11.13;100.00;101472.66;5029101;28;20089;-62
2022/05/08 01:43:41;;;;;;;12.07;6.38;;;;;;;11.13;100.00;101475.28;5046958;28;20031;-62
2022/05/08 01:46:07;;;;;;;7.70;6.90;;;;;;;11.18;100.00;101475.13;5048130;28;20042;-62
2022/05/08 01:48:33;;;;;;;15.57;7.20;;;;;;;11.19;100.00;101485.59;5028807;28;20978;-62
2022/05/08 01:51:00;;;;;;;10.02;7.70;;;;;;;11.13;100.00;101472.66;5046293;28;20036;-62
2022/05/08 01:53:27;;;;;;;8.27;6.60;;;;;;;11.11;100.00;101487.66;5035432;28;20024;-63
2022/05/08 01:55:54;;;;;;;7.88;6.55;;;;;;;11.05;100.00;101473.84;5091481;28;20024;-62
2022/05/08 01:58:24;;;;;;;9.15;6.63;;;;;;;10.99;100.00;101480.16;5091094;28;20024;-63
2022/05/08 02:00:50;;;;;;;14.05;6.47;;;;;;;10.93;100.00;101469.84;5092133;28;20030;-62
2022/05/08 02:03:15;;;;;;;9.43;6.80;;;;;;;10.95;100.00;101483.81;5090872;28;20024;-63
2022/05/08 02:05:42;;;;;;;9.10;6.72;;;;;;;10.94;100.00;101476.84;5090528;28;20081;-62
2022/05/08 02:08:08;;;;;;;12.20;7.75;;;;;;;11.03;100.00;101483.53;5091039;28;20394;-62
2022/05/08 02:10:34;;;;;;;12.75;7.90;;;;;;;11.00;100.00;101483.66;5090683;28;20040;-62
2022/05/08 02:12:59;;;;;;;16.88;8.20;;;;;;;10.94;100.00;101482.09;5091312;28;20518;-62
2022/05/08 02:15:29;;;;;;;9.88;7.38;;;;;;;11.01;100.00;101490.63;5059704;28;20399;-64
2022/05/08 02:18:06;;;;;;;10.07;7.25;;;;;;;10.93;100.00;101472.50;5047040;28;20034;-63
2022/05/08 02:20:32;;;;;;;9.85;7.00;;;;;;;11.00;100.00;101487.16;5048618;28;20032;-63
2022/05/08 02:22:58;;;;;;;10.52;7.78;;;;;;;11.01;100.00;101488.00;5046465;28;20028;-63
2022/05/08 02:25:23;;;;;;;13.32;7.45;;;;;;;10.92;100.00;101478.66;5046176;28;20024;-63
2022/05/08 02:27:51;;;;;;;13.77;8.55;;;;;;;10.94;100.00;101490.00;5047022;28;20027;-63
2022/05/08 02:30:22;;;;;;;10.63;7.30;;;;;;;10.91;100.00;101490.09;5044593;28;20054;-63
2022/05/08 02:32:51;;;;;;;10.73;7.60;;;;;;;10.89;100.00;101489.28;5055361;28;20036;-63
2022/05/08 02:35:17;;;;;;;11.63;8.05;;;;;;;10.82;100.00;101486.91;5090687;28;20020;-63
2022/05/08 02:37:43;;;;;;;10.95;8.70;;;;;;;10.84;100.00;101491.22;5090372;28;20089;-62
2022/05/08 02:40:09;;;;;;;16.88;8.95;;;;;;;10.78;100.00;101476.50;5091510;28;20641;-62
2022/05/08 02:42:40;;;;;;;11.82;8.55;;;;;;;10.90;100.00;101500.66;5054068;28;20039;-63
2022/05/08 02:45:10;;;;;;;10.93;8.23;;;;;;;10.68;100.00;101463.69;5047116;28;20027;-63
2022/05/08 02:47:36;;;;;;;12.07;8.20;;;;;;;10.96;100.00;101501.31;5045867;28;20024;-63
2022/05/08 02:50:03;;;;;;;12.38;8.82;;;;;;;10.99;100.00;101500.34;5084750;28;20108;-62
2022/05/08 02:52:28;;;;;;;11.70;8.63;;;;;;;10.94;100.00;101487.38;5090293;28;20028;-63
2022/05/08 02:54:53;;;;;;;11.50;8.77;;;;;;;10.98;100.00;101499.50;5091325;28;20035;-63
2022/05/08 03:00:05;;;;;;;18.55;9.88;;;;;;;10.97;100.00;101484.63;5091759;28;20047;-63
2022/05/08 03:02:32;;;;;;;12.02;9.32;;;;;;;11.05;100.00;101495.72;5091659;28;20028;-63
2022/05/08 03:04:57;;;;;;;13.07;9.90;;;;;;;11.00;100.00;101483.66;5091715;28;20031;-63
2022/05/08 03:07:23;;;;;;;15.40;9.82;;;;;;;10.94;100.00;101486.50;5091978;28;20035;-62
2022/05/08 03:09:48;;;;;;;13.27;9.88;;;;;;;11.00;100.00;101491.53;5087457;28;20028;-62
2022/05/08 03:12:13;;;;;;;12.75;9.60;;;;;;;10.93;100.00;101485.63;5045676;28;20024;-63
2022/05/08 03:14:39;;;;;;;14.10;9.77;;;;;;;10.99;100.00;101501.19;5047509;28;20031;-62
2022/05/08 03:17:05;;;;;;;18.20;11.20;;;;;;;11.01;100.00;101504.66;5067427;28;20138;-64
2022/05/08 03:19:31;;;;;;;14.65;9.77;;;;;;;10.91;100.00;101479.59;5091493;28;20445;-63
2022/05/08 03:21:57;;;;;;;11.95;9.93;;;;;;;10.98;100.00;101503.91;5079517;28;20051;-62
2022/05/08 03:24:22;;;;;;;15.15;10.65;;;;;;;10.91;100.00;101500.63;5050740;28;20142;-62
2022/05/08 03:26:47;;;;;;;19.10;10.52;;;;;;;10.85;100.00;101492.91;5049419;28;20028;-62
2022/05/08 03:29:13;;;;;;;12.80;11.43;;;;;;;10.74;100.00;101484.56;5047467;28;20035;-62
2022/05/08 03:31:39;;;;;;;14.50;11.23;;;;;;;10.80;100.00;101500.13;5048863;28;20054;-62
2022/05/08 03:34:04;;;;;;;13.32;11.40;;;;;;;10.72;100.00;101494.25;5049585;28;20032;-62
2022/05/08 03:36:30;;;;;;;14.25;10.52;;;;;;;10.56;100.00;101488.63;5048458;28;20799;-62
2022/05/08 03:38:56;;;;;;;20.00;12.95;;;;;;;10.57;100.00;101497.38;5047915;28;20032;-62
2022/05/08 03:41:21;;;;;;;15.70;11.68;;;;;;;10.54;100.00;101511.50;5049923;28;20928;-63
2022/05/08 03:43:47;;;;;;;21.38;11.50;;;;;;;10.52;100.00;101509.78;5061096;28;20028;-63
2022/05/08 03:46:15;;;;;;;15.45;12.85;;;;;;;10.13;100.00;101454.97;5086037;28;21111;-63
2022/05/08 03:48:41;;;;;;;17.15;12.25;;;;;;;10.37;100.00;101499.78;5048192;28;20054;-63
2022/05/08 03:51:08;;;;;;;16.17;11.40;;;;;;;10.38;100.00;101506.75;5048103;28;20024;-63
2022/05/08 03:53:33;;;;;;;20.08;13.30;;;;;;;10.25;100.00;101490.50;5047669;28;20036;-62
2022/05/08 03:55:59;;;;;;;15.75;13.48;;;;;;;10.35;100.00;101512.09;5049161;28;20865;-62
2022/05/08 03:58:24;;;;;;;21.48;14.20;;;;;;;9.92;100.00;101439.88;5050060;28;20891;-63
2022/05/08 04:00:50;;;;;;;20.88;13.95;;;;;;;10.34;100.00;101513.88;5047962;28;20043;-63
2022/05/08 04:03:15;;;;;;;19.08;13.60;;;;;;;10.33;100.00;101508.66;5049181;28;20680;-63
2022/05/08 04:05:40;;;;;;;16.30;13.15;;;;;;;10.06;100.00;101469.19;5048586;28;20028;-63
2022/05/08 04:08:06;;;;;;;18.10;14.27;;;;;;;10.00;100.00;101450.16;5048228;28;20852;-63
2022/05/08 04:10:33;;;;;;;19.77;15.10;;;;;;;10.37;100.00;101510.31;5048975;28;20087;-63
2022/05/08 04:12:58;;;;;;;27.85;15.23;;;;;;;10.39;100.00;101508.47;5048474;28;20028;-63
2022/05/08 04:18:09;;;;;;;15.60;13.93;;;;;;;10.34;100.00;101489.38;5093818;28;20035;-62
2022/05/08 04:20:34;;;;;;;23.75;14.85;;;;;;;10.36;100.00;101485.78;5093898;28;20384;-63
2022/05/08 04:25:44;;;;;;;20.77;15.73;;;;;;;10.60;100.00;101515.69;5093177;28;20051;-63
2022/05/08 04:28:09;;;;;;;19.55;15.32;;;;;;;10.43;100.00;101479.44;5064652;28;20035;-63
2022/05/08 04:30:36;;;;;;;17.42;14.57;;;;;;;10.50;100.00;101501.13;5086033;28;20035;-63
2022/05/08 04:33:01;;;;;;;18.00;14.63;;;;;;;10.60;100.00;101513.06;5093329;28;20478;-63
2022/05/08 04:35:26;;;;;;;23.42;14.55;;;;;;;10.66;100.00;101528.63;5093108;28;20035;-63
2022/05/08 04:37:52;;;;;;;17.65;14.45;;;;;;;10.61;100.00;101518.25;5093527;28;20024;-63
2022/05/08 04:40:17;;;;;;;16.48;14.02;;;;;;;10.49;100.00;101497.63;5093576;28;20501;-63
2022/05/08 04:42:42;;;;;;;15.65;13.88;;;;;;;10.29;100.00;101470.25;5093044;28;20062;-63
2022/05/08 04:45:08;;;;;;;16.52;12.85;;;;;;;10.68;100.00;101534.66;5093244;28;20029;-63
2022/05/08 04:47:34;;;;;;;17.58;14.38;;;;;;;10.50;100.00;101511.63;5085466;28;20031;-63
2022/05/08 04:49:59;;;;;;;21.00;13.95;;;;;;;10.60;100.00;101534.06;5049804;28;20024;-63
2022/05/08 04:52:24;;;;;;;18.38;15.20;;;;;;;10.63;100.00;101539.22;5050116;28;20859;-63
2022/05/08 04:54:50;;;;;;;26.15;15.00;;;;;;;10.63;100.00;101541.88;5048875;28;20785;-63
2022/05/08 04:57:15;;;;;;;16.80;12.98;;;;;;;10.56;100.00;101535.94;5048521;28;20136;-63
2022/05/08 04:59:40;;;;;;;15.73;14.18;;;;;;;10.56;100.00;101543.81;5048749;28;20896;-63
2022/05/08 05:02:08;;;;;;;18.58;14.35;;;;;;;10.50;100.00;101537.91;5047069;28;20032;-63
2022/05/08 05:04:36;;;;;;;20.65;15.27;;;;;;;10.47;100.00;101553.78;5048910;28;20024;-63
2022/05/08 05:07:02;;;;;;;19.25;14.20;;;;;;;10.44;100.00;101557.38;5048683;28;20306;-62
2022/05/08 05:09:27;;;;;;;18.10;13.25;;;;;;;10.43;100.00;101547.75;5048903;28;20040;-63
2022/05/08 05:11:53;;;;;;;20.05;15.13;;;;;;;10.43;100.00;101546.88;5051998;28;20024;-63
2022/05/08 05:14:19;;;;;;;18.55;14.95;;;;;;;10.39;100.00;101545.25;5050130;28;20024;-62
2022/05/08 05:16:44;;;;;;;19.52;14.63;;;;;;;10.22;100.00;101524.75;5048667;28;20065;-63
2022/05/08 05:19:10;;;;;;;15.77;13.98;;;;;;;10.37;100.00;101558.47;5057511;28;20036;-63
2022/05/08 05:21:35;;;;;;;14.98;13.38;;;;;;;10.31;100.00;101547.28;5050252;28;20858;-63
2022/05/08 05:24:01;;;;;;;16.42;13.68;;;;;;;10.08;100.00;101533.03;5049705;28;20031;-62
2022/05/08 05:26:27;;;;;;;20.30;14.50;;;;;;;10.22;100.00;101554.50;5074022;28;20056;-62
2022/05/08 05:28:52;;;;;;;20.20;13.95;;;;;;;10.24;100.00;101557.94;5064252;28;20031;-62
2022/05/08 05:31:18;;;;;;;17.85;14.27;;;;;;;10.25;100.00;101567.56;5048902;28;20063;-62
2022/05/08 05:33:46;;;;;;;18.02;14.70;;;;;;;10.20;100.00;101555.47;5048488;28;20237;-62
2022/05/08 05:36:12;;;;;;;20.27;14.55;;;;;;;10.20;100.00;101551.09;5048153;28;20921;-63
2022/05/08 05:38:37;;;;;;;18.05;14.73;;;;;;;10.32;100.00;101575.25;5047728;28;20090;-62
2022/05/08 05:41:02;;;;;;;19.83;14.60;;;;;;;10.36;100.00;101577.75;5047081;28;20885;-62
2022/05/08 05:43:28;;;;;;;19.58;15.43;;;;;;;10.40;100.00;101581.13;5046380;28;20055;-62
2022/05/08 05:48:39;;;;;;;21.40;16.20;;;;;;;10.49;100.00;101573.84;5080830;28;20157;-62
2022/05/08 05:51:07;;;;;;;22.73;16.13;;;;;;;10.51;100.00;101576.41;5067374;28;20024;-62
2022/05/08 05:53:34;;;;;;;26.80;16.23;;;;;;;10.67;100.00;101594.28;5046908;28;20028;-62
2022/05/08 05:55:59;;;;;;;19.63;15.75;;;;;;;10.70;100.00;101598.59;5047805;28;20038;-62
2022/05/08 05:58:25;;;;;;;24.63;17.38;;;;;;;10.68;100.00;101598.63;5049395;28;20762;-62
2022/05/08 06:00:50;;;;;;;20.50;15.85;;;;;;;10.49;100.00;101562.44;5052801;28;20534;-62
2022/05/08 06:03:15;;;;;;;19.52;16.02;;;;;;;10.85;100.00;101605.97;5049427;28;20039;-62
2022/05/08 06:05:41;;;;;;;19.00;16.90;;;;;;;10.87;100.00;101595.41;5042454;28;20028;-63
2022/05/08 06:08:07;;;;;;;24.73;15.85;;;;;;;11.00;100.00;101602.88;5050012;28;20034;-62
2022/05/08 06:10:32;;;;;;;21.40;17.05;;;;;;;11.08;100.00;101611.38;5053678;28;20028;-63
2022/05/08 06:12:58;;;;;;;20.42;16.38;;;;;;;11.15;100.00;101619.94;5059258;28;20028;-62
2022/05/08 06:15:24;;;;;;;19.52;16.20;;;;;;;11.15;100.00;101612.03;5054642;28;20020;-63
2022/05/08 06:17:49;;;;;;;23.42;16.73;;;;;;;11.13;100.00;101613.84;5040252;28;20098;-62
2022/05/08 06:20:15;;;;;;;22.30;17.55;;;;;;;11.17;100.00;101626.84;5023070;28;20048;-62
2022/05/08 06:22:40;;;;;;;22.70;17.05;;;;;;;11.09;100.00;101604.31;5041751;28;20134;-63
2022/05/08 06:25:06;;;;;;;22.02;18.52;;;;;;;11.13;100.00;101622.59;5043991;28;20031;-62
2022/05/08 06:27:31;;;;;;;22.00;18.50;;;;;;;11.17;100.00;101642.63;5046302;28;20028;-62
2022/05/08 06:29:58;;;;;;;21.38;18.52;;;;;;;11.10;100.00;101616.56;5047539;28;20026;-62
2022/05/08 06:32:24;;;;;;;25.15;19.05;;;;;;;11.06;100.00;101630.72;5056359;28;20016;-63
2022/05/08 06:34:49;;;;;;;30.85;23.88;;;;;;;11.00;100.00;101628.31;5064116;28;20135;-63
2022/05/08 06:37:15;;;;;;;22.42;19.45;;;;;;;10.93;100.00;101618.88;5067700;28;20838;-62
2022/05/08 06:39:40;;;;;;;26.17;19.52;;;;;;;11.10;100.00;101641.09;5062342;28;20834;-62
2022/05/08 06:42:06;;;;;;;22.75;19.00;;;;;;;11.18;100.00;101641.72;5056142;28;20594;-62
2022/05/08 06:44:31;;;;;;;23.55;19.30;;;;;;;11.14;100.00;101621.69;5060714;28;20059;-62
2022/05/08 06:46:58;;;;;;;21.27;17.92;;;;;;;11.24;100.00;101643.28;5050988;28;20016;-62
2022/05/08 06:49:23;;;;;;;23.38;18.83;;;;;;;11.33;100.00;101642.13;5059831;28;20392;-61
2022/05/08 06:51:49;;;;;;;25.27;20.00;;;;;;;11.42;100.00;101644.47;5059342;28;20028;-62
2022/05/08 06:54:14;;;;;;;25.25;18.33;;;;;;;11.65;100.00;101649.78;5055425;28;20808;-63
2022/05/08 06:56:41;;;;;;;24.25;18.35;;;;;;;11.77;100.00;101636.22;5058172;28;20028;-62
2022/05/08 07:01:51;;;;;;;33.85;18.23;;;;;;;12.01;100.00;101643.25;5044763;28;20047;-62
2022/05/08 07:04:16;;;;;;;23.98;19.42;;;;;;;12.13;100.00;101648.06;5043436;28;20036;-62
2022/05/08 07:06:42;;;;;;;23.58;18.40;;;;;;;12.17;100.00;101641.78;5045124;28;20785;-63
2022/05/08 07:09:08;;;;;;;30.00;20.08;;;;;;;12.28;100.00;101647.53;5045828;28;20042;-63
2022/05/08 07:11:33;;;;;;;23.17;18.60;;;;;;;12.38;100.00;101652.44;5064754;28;20047;-62
2022/05/08 07:13:59;;;;;;;25.25;20.83;;;;;;;12.46;100.00;101651.25;5065401;28;20027;-63
2022/05/08 07:16:25;;;;;;;24.35;20.65;;;;;;;12.33;100.00;101628.03;5059634;28;20389;-63
2022/05/08 07:18:51;;;;;;;28.48;21.33;;;;;;;12.37;100.00;101650.75;5059063;28;20028;-64
2022/05/08 07:21:18;;;;;;;21.73;18.95;;;;;;;12.24;100.00;101630.09;5058801;28;20028;-62
2022/05/08 07:23:43;;;;;;;23.83;19.52;;;;;;;12.23;100.00;101623.09;5044823;28;20085;-63
2022/05/08 07:26:09;;;;;;;25.13;19.88;;;;;;;12.50;100.00;101652.00;5049006;28;20028;-63
2022/05/08 07:28:34;;;;;;;26.92;19.17;;;;;;;12.65;100.00;101661.94;5047219;28;20068;-63
2022/05/08 07:31:01;;;;;;;24.63;17.02;;;;;;;12.67;100.00;101670.66;5042911;28;20036;-63
2022/05/08 07:33:29;;;;;;;23.60;17.60;;;;;;;12.65;100.00;101675.13;5035969;28;20032;-63
2022/05/08 07:36:12;;;;;;;18.98;17.05;;;;;;;12.67;100.00;101675.94;5044682;28;20058;-62
2022/05/08 07:38:45;;;;;;;23.38;16.45;;;;;;;12.61;100.00;101671.75;5054822;28;20062;-62
2022/05/08 07:41:11;;;;;;;19.33;16.17;;;;;;;12.69;100.00;101679.38;5035523;28;20024;-62
2022/05/08 07:43:37;;;;;;;21.48;15.95;;;;;;;12.61;100.00;101687.56;5031914;28;20112;-62
2022/05/08 07:46:03;;;;;;;22.25;16.00;;;;;;;12.65;100.00;101678.63;5046776;28;20032;-62
2022/05/08 07:48:29;;;;;;;19.88;15.85;;;;;;;12.74;100.00;101693.25;5028548;28;20032;-63
2022/05/08 07:50:54;;;;;;;15.23;13.65;;;;;;;12.73;100.00;101686.25;5029154;28;20031;-62
2022/05/08 07:53:20;;;;;;;19.52;14.48;;;;;;;12.73;100.00;101691.53;5027679;28;20827;-62
2022/05/08 07:55:52;;;;;;;20.63;14.90;;;;;;;12.93;100.00;101694.25;5029574;28;20020;-62
2022/05/08 07:58:18;;;;;;;19.55;13.68;;;;;;;13.01;100.00;101696.59;5029689;28;20135;-62
2022/05/08 08:00:44;;;;;;;18.95;14.52;;;;;;;12.79;100.00;101717.66;5029524;28;20052;-62
2022/05/08 08:03:09;;;;;;;17.45;14.10;;;;;;;12.47;100.00;101689.03;5029840;28;20043;-63
2022/05/08 08:05:35;;;;;;;15.00;12.60;;;;;;;12.62;100.00;101698.97;5028438;28;20035;-63
2022/05/08 08:08:00;;;;;;;17.08;13.60;;;;;;;12.58;100.00;101692.09;5027761;28;20091;-62
2022/05/08 08:10:25;;;;;;;33.55;14.75;;;;;;;12.67;100.00;101687.31;5028172;28;20885;-62
2022/05/08 08:12:51;;;;;;;16.55;13.52;;;;;;;12.81;100.00;101700.00;5026876;28;20969;-62
2022/05/08 08:15:16;;;;;;;19.60;13.00;;;;;;;12.88;100.00;101701.47;5027355;28;20031;-62
2022/05/08 08:17:41;;;;;;;16.65;12.82;;;;;;;12.71;100.00;101690.72;5028027;28;20977;-63
2022/05/08 08:20:07;;;;;;;15.63;10.98;;;;;;;12.67;100.00;101702.31;5028731;28;20028;-63
2022/05/08 08:22:33;;;;;;;15.77;12.15;;;;;;;12.49;100.00;101695.94;5027430;28;20033;-62
2022/05/08 08:25:00;;;;;;;16.90;11.27;;;;;;;12.48;100.00;101696.00;5009686;28;20055;-62
2022/05/08 08:27:26;;;;;;;18.52;12.75;;;;;;;12.52;100.00;101705.50;5026789;28;20020;-62
2022/05/08 08:29:52;;;;;;;18.58;11.57;;;;;;;12.48;100.00;101693.34;5027496;28;20137;-62
2022/05/08 08:32:18;;;;;;;17.83;11.57;;;;;;;12.51;100.00;101701.16;5027758;28;20876;-63
2022/05/08 08:34:43;;;;;;;17.33;10.13;;;;;;;12.60;100.00;101695.56;5027539;28;20091;-63
2022/05/08 08:37:08;;;;;;;15.23;10.50;;;;;;;12.62;100.00;101677.88;5027288;28;20031;-62
2022/05/08 08:39:34;;;;;;;14.70;11.38;;;;;;;12.75;100.00;101698.47;5009700;28;20024;-62
2022/05/08 08:42:21;;;;;;;19.40;12.35;;;;;;;12.78;100.00;101705.38;5027697;28;20043;-62
2022/05/08 08:47:44;;;;;;;16.90;9.98;;;;;;;12.93;100.00;101696.91;5040987;28;20040;-63
2022/05/08 08:50:10;;;;;;;17.73;11.48;;;;;;;13.10;100.00;101707.69;5029081;28;20028;-63
2022/05/08 08:52:36;;;;;;;16.20;10.60;;;;;;;13.19;100.00;101703.81;5028449;28;20886;-63
2022/05/08 08:55:02;;;;;;;24.13;10.20;;;;;;;13.21;100.00;101689.63;5010312;28;20135;-63
2022/05/08 08:57:27;;;;;;;18.40;9.80;;;;;;;13.24;100.00;101676.31;5042359;28;20031;-62
2022/05/08 08:59:52;;;;;;;18.63;9.35;;;;;;;13.48;100.00;101700.84;5042299;28;20051;-63
2022/05/08 09:02:20;;;;;;;13.30;8.55;;;;;;;13.52;100.00;101697.16;5036228;28;20802;-63
2022/05/08 09:04:47;;;;;;;14.77;8.88;;;;;;;13.18;100.00;101633.47;5015753;28;20033;-62
2022/05/08 09:07:40;;;;;;;16.38;9.23;;;;;;;13.74;100.00;101707.69;5027113;28;20064;-63
2022/05/08 09:10:35;;;;;;;16.55;9.52;;;;;;;13.81;100.00;101706.50;5006476;28;20093;-63
2022/05/08 09:13:07;;;;;;;;;;;;;;;13.91;100.00;101702.53;5035532;28;20085;-62
2022/05/08 09:15:34;;;;;;;12.50;6.95;;;;;;;13.92;100.00;101701.63;5029147;28;19912;-63
2022/05/08 09:18:01;;;;;;;14.15;7.85;;;;;;;14.04;100.00;101701.09;5007647;28;20918;-63
2022/05/08 09:20:36;;;;;;;10.20;7.03;;;;;;;14.10;100.00;101703.44;5026132;28;20028;-63
2022/05/08 09:23:02;;;;;;;13.60;7.85;;;;;;;14.20;100.00;101703.91;5026225;28;20101;-63
2022/05/08 09:25:47;;;;;;;13.05;7.72;;;;;;;14.26;100.00;101703.66;5027038;28;20834;-63
2022/05/08 09:28:14;;;;;;;10.75;6.75;;;;;;;14.31;100.00;101706.94;5025165;28;20152;-63
2022/05/08 09:31:05;;;;;;;12.07;6.80;;;;;;;14.39;100.00;101698.69;5027017;28;20051;-63
2022/05/08 09:33:30;;;;;;;13.50;6.45;;;;;;;14.44;100.00;101699.34;5026466;28;20024;-62
2022/05/08 09:35:56;;;;;;;15.35;6.10;;;;;;;14.46;100.00;101697.50;5027344;28;20024;-61
2022/05/08 09:38:22;;;;;;;11.15;5.25;;;;;;;14.44;100.00;101704.63;5027130;28;20043;-62
2022/05/08 09:41:06;;;;;;;12.05;5.72;;;;;;;14.36;100.00;101672.41;5026733;28;20136;-63
2022/05/08 09:43:34;;;;;;;13.68;5.75;;;;;;;14.23;100.00;101649.09;5026601;28;20039;-63
2022/05/08 09:46:00;;;;;;;9.00;4.82;;;;;;;14.54;100.00;101687.41;5024537;28;20404;-62
2022/05/08 09:48:27;;;;;;;8.43;4.85;;;;;;;14.65;100.00;101698.38;5032759;28;20919;-64
2022/05/08 09:50:58;;;;;;;10.95;5.38;;;;;;;14.70;100.00;101689.28;5036499;28;20897;-63
2022/05/08 09:53:24;;;;;;;12.77;5.45;;;;;;;14.85;100.00;101693.00;5039781;28;20024;-62
2022/05/08 09:55:51;;;;;;;8.65;4.05;;;;;;;14.83;100.00;101689.59;5033015;28;20423;-63
2022/05/08 09:58:17;;;;;;;14.32;4.68;;;;;;;14.71;100.00;101674.25;5025524;28;20086;-62
2022/05/08 10:00:42;;;;;;;13.23;5.28;;;;;;;14.73;100.00;101661.84;5025768;28;20882;-63
2022/05/08 10:03:08;;;;;;;9.93;3.65;;;;;;;14.99;100.00;101684.41;5007845;28;20852;-63
2022/05/08 10:05:34;;;;;;;10.63;4.95;;;;;;;14.96;100.00;101668.69;5036227;28;20927;-61
2022/05/08 10:08:01;;;;;;;8.85;4.40;;;;;;;15.24;100.00;101698.19;5038625;28;20028;-63
2022/05/08 10:15:55;;;;;;;12.60;3.80;;;;;;;15.48;100.00;101704.09;5043691;28;20857;-67
2022/05/08 10:18:31;;;;;;;9.75;4.82;;;;;;;15.58;98.17;101695.59;5018725;28;20278;-63
2022/05/08 10:21:08;;;;;;;11.90;4.10;;;;;;;15.62;100.00;101696.31;5031701;28;20025;-65
2022/05/08 10:23:45;;;;;;;7.60;3.53;;;;;;;15.77;100.00;101692.91;5007530;28;20029;-64
2022/05/08 10:26:22;;;;;;;14.52;4.43;;;;;;;15.97;94.55;101703.34;5024792;28;20109;-62
2022/05/08 10:29:11;;;;;;;11.65;4.47;;;;;;;16.05;94.47;101695.84;5019876;28;20155;-69
2022/05/08 10:31:43;;;;;;;9.77;4.20;;;;;;;16.17;94.04;101695.19;5024922;28;20024;-61
2022/05/08 10:34:09;;;;;;;9.25;4.28;;;;;;;16.22;88.09;101682.53;5045680;28;20028;-61
2022/05/08 10:36:34;;;;;;;9.60;4.40;;;;;;;16.29;91.44;101678.63;5045033;28;20035;-67
2022/05/08 10:39:42;;;;;;;10.02;4.45;;;;;;;16.53;89.98;101680.88;5047519;28;20028;-66
2022/05/08 10:42:29;;;;;;;12.07;4.07;;;;;;;16.70;86.92;101680.88;5038662;28;20054;-62
2022/05/08 10:44:58;;;;;;;8.18;3.88;;;;;;;16.81;85.39;101681.13;5046818;28;20024;-65
2022/05/08 10:47:33;;;;;;;9.43;4.00;;;;;;;16.87;82.94;101680.78;5029289;28;20775;-64
2022/05/08 10:50:08;;;;;;;7.65;4.00;;;;;;;16.92;84.25;101662.81;5046908;28;20028;-67
2022/05/08 10:52:41;;;;;;;14.57;4.22;;;;;;;17.08;80.76;101662.78;5045844;28;20036;-65
2022/05/08 10:55:08;;;;;;;6.95;3.15;;;;;;;17.07;77.35;101659.28;5027035;28;20140;-60
2022/05/08 10:57:37;;;;;;;9.07;4.57;;;;;;;17.09;74.95;101659.22;5045059;28;20024;-61
2022/05/08 11:00:05;;;;;;;11.55;3.95;;;;;;;17.20;76.68;101667.44;5044027;28;20025;-64
2022/05/08 11:02:50;;;;;;;6.50;3.33;;;;;;;17.26;75.83;101637.84;5036780;28;20889;-62
2022/05/08 11:05:22;;;;;;;10.25;3.45;;;;;;;17.54;75.45;101650.38;5033839;28;20033;-63
2022/05/08 11:07:51;;;;;;;12.48;4.00;;;;;;;17.77;75.46;101657.88;5007148;28;20036;-63
2022/05/08 11:10:21;;;;;;;6.13;3.17;;;;;;;17.95;70.85;101656.75;5024714;28;20040;-62
2022/05/08 11:13:09;;;;;;;6.20;2.70;;;;;;;18.24;70.67;101665.63;5007656;28;20035;-63
2022/05/08 11:15:41;;;;;;;6.25;3.03;;;;;;;18.48;68.90;101664.09;5024977;28;20021;-63
2022/05/08 11:18:12;;;;;;;10.32;3.72;;;;;;;18.55;70.71;101657.47;5024618;28;20040;-63
2022/05/08 11:20:44;;;;;;;8.95;2.72;;;;;;;18.73;67.08;101660.75;5024918;28;20036;-63
2022/05/08 11:23:13;;;;;;;6.32;2.90;;;;;;;18.80;65.29;101662.06;5024797;28;20090;-63
2022/05/08 11:25:39;;;;;;;9.55;3.63;;;;;;;18.88;65.94;101651.78;5007273;28;20029;-63
2022/05/08 11:28:04;;;;;;;8.93;3.45;;;;;;;19.02;68.88;101634.91;5024665;28;20876;-63
2022/05/08 11:30:33;;;;;;;9.93;3.60;;;;;;;19.52;68.00;101661.75;5024405;28;20040;-63